createdAt,value
2023-04-01T00:10:02.351Z,98482.19
2023-04-01T00:20:06.909Z,98485.75
2023-04-01T00:30:10.177Z,98482.84
2023-04-01T00:40:26.199Z,98488.56
2023-04-01T00:50:30.316Z,98454.31
2023-04-01T01:00:33.939Z,98508.44
2023-04-01T01:10:39.374Z,98473.88
2023-04-01T01:20:45.878Z,98456.25
2023-04-01T01:30:48.548Z,98428.72
2023-04-01T01:40:54.908Z,98430.16
2023-04-01T01:50:58.589Z,98424.56
2023-04-01T02:01:46.244Z,98394.84
2023-04-01T02:12:06.939Z,98392.56
2023-04-01T02:22:18.993Z,98380.34
2023-04-01T02:32:43.250Z,98385.66
2023-04-01T02:42:59.400Z,98428.44
2023-04-01T02:53:16.469Z,98388.84
2023-04-01T03:03:39.338Z,98416.91
2023-04-01T03:13:55.480Z,98432.59
2023-04-01T03:23:58.377Z,98440.13
2023-04-01T03:34:21.251Z,98396.09
2023-04-01T03:44:37.473Z,98409.34
2023-04-01T03:54:41.463Z,98385.03
2023-04-01T04:05:04.271Z,98414.75
2023-04-01T04:15:20.502Z,98410.53
2023-04-01T04:25:23.114Z,98417.41
2023-04-01T04:35:26.442Z,98420.72
2023-04-01T04:45:35.759Z,98461.03
2023-04-01T04:55:44.929Z,98483.25
2023-04-01T05:06:11.352Z,98479.28
2023-04-01T05:16:35.294Z,98451.44
2023-04-01T05:26:51.424Z,98487.22
2023-04-01T05:37:02.290Z,98456.75
2023-04-01T05:47:25.303Z,98479.91
2023-04-01T05:57:41.480Z,98480.06
2023-04-01T06:08:09.242Z,98482.84
2023-04-01T06:18:32.123Z,98476.53
2023-04-01T06:29:01.241Z,98485.84
2023-04-01T06:39:20.728Z,98481.34
2023-04-01T06:50:07.365Z,98485.25
2023-04-01T07:00:49.294Z,98488.56
2023-04-01T07:11:14.267Z,98501.75
2023-04-01T07:22:07.272Z,98497.00
2023-04-01T07:32:45.552Z,98502.13
2023-04-01T07:43:39.279Z,98539.78
2023-04-01T07:54:19.165Z,98554.41
2023-04-01T08:05:25.308Z,98550.91
2023-04-01T08:16:13.352Z,98518.97
2023-04-01T08:26:50.797Z,98531.72
2023-04-01T08:37:02.046Z,98538.69
2023-04-01T08:47:14.582Z,98548.50
2023-04-01T08:58:08.703Z,98543.56
2023-04-01T09:08:48.680Z,98535.91
2023-04-01T09:19:23.827Z,98532.03
2023-04-01T09:30:13.319Z,98534.38
2023-04-01T09:40:42.308Z,98540.25
2023-04-01T09:51:27.317Z,98555.84
2023-04-01T10:01:53.897Z,98527.09
2023-04-01T10:12:23.351Z,98521.59
2023-04-01T10:22:28.785Z,98529.09
2023-04-01T10:33:16.750Z,98529.53
2023-04-01T10:43:53.342Z,98508.91
2023-04-01T10:54:12.694Z,98528.50
2023-04-01T11:04:59.294Z,98520.97
2023-04-01T11:15:30.141Z,98504.78
2023-04-01T11:25:53.776Z,98494.91
2023-04-01T11:36:38.753Z,98491.91
2023-04-01T11:47:09.859Z,98493.84
2023-04-01T11:57:36.638Z,98495.25
2023-04-01T12:08:10.351Z,98477.91
2023-04-01T12:18:49.498Z,98472.09
2023-04-01T12:29:21.643Z,98512.94
2023-04-01T12:39:52.777Z,98514.44
2023-04-01T12:50:39.328Z,98508.16
2023-04-01T13:01:11.167Z,98467.34
2023-04-01T13:11:26.832Z,98473.81
2023-04-01T13:21:58.356Z,98466.25
2023-04-01T13:32:40.701Z,98455.34
2023-04-01T13:43:03.332Z,98453.97
2023-04-01T13:53:35.374Z,98468.25
2023-04-01T14:04:08.292Z,98451.16
2023-04-01T14:14:19.898Z,98471.22
2023-04-01T14:24:51.411Z,98447.41
2023-04-01T14:35:44.421Z,98439.00
2023-04-01T14:46:07.194Z,98449.31
2023-04-01T14:56:14.749Z,98424.81
2023-04-01T15:06:36.097Z,98434.44
2023-04-01T15:17:14.401Z,98454.84
2023-04-01T15:27:51.657Z,98461.94
2023-04-01T15:38:32.397Z,98470.66
2023-04-01T15:48:57.715Z,98481.63
2023-04-01T15:59:16.419Z,98466.28
2023-04-01T16:09:54.394Z,98498.13
2023-04-01T16:20:11.208Z,98511.75
2023-04-01T16:30:41.688Z,98515.28
2023-04-01T16:41:02.585Z,98503.28
2023-04-01T16:51:31.380Z,98533.50
2023-04-01T17:02:10.478Z,98530.25
2023-04-01T17:12:50.482Z,98566.09
2023-04-01T17:23:01.321Z,98549.56
2023-04-01T17:33:41.382Z,98564.88
2023-04-01T17:44:19.068Z,98572.06
2023-04-01T17:54:55.869Z,98571.84
2023-04-01T18:05:44.379Z,98610.44
2023-04-01T18:16:22.581Z,98634.88
2023-04-01T18:26:44.072Z,98620.94
2023-04-01T18:37:31.491Z,98668.41
2023-04-01T18:48:10.445Z,98653.94
2023-04-01T18:58:33.801Z,98663.59
2023-04-01T19:08:41.714Z,98677.03
2023-04-01T19:19:07.640Z,98708.13
2023-04-01T19:29:48.006Z,98681.03
2023-04-01T19:40:26.450Z,98706.56
2023-04-01T19:50:43.151Z,98740.88
2023-04-01T20:01:13.508Z,98734.78
2023-04-01T20:12:06.385Z,98732.88
2023-04-01T20:22:54.457Z,98735.22
2023-04-01T20:33:51.083Z,98734.59
2023-04-01T20:44:16.466Z,98764.13
2023-04-01T20:54:51.409Z,98768.69
2023-04-01T21:05:23.458Z,98801.75
2023-04-01T21:15:59.392Z,98815.00
2023-04-01T21:26:21.126Z,98826.88
2023-04-01T21:36:28.203Z,98835.53
2023-04-01T21:47:11.471Z,98864.06
2023-04-01T21:58:16.415Z,98855.31
2023-04-01T22:08:39.139Z,98851.31
2023-04-01T22:19:14.217Z,98864.25
2023-04-01T22:29:28.150Z,98872.34
2023-04-01T22:40:15.474Z,98836.25
2023-04-01T22:50:50.994Z,98835.84
2023-04-01T23:01:21.460Z,98859.41
2023-04-01T23:11:40.529Z,98879.03
2023-04-01T23:22:17.646Z,98879.28
2023-04-01T23:32:36.443Z,98896.66
2023-04-01T23:42:59.460Z,98868.13
2023-04-01T23:53:29.246Z,98859.03
